sensor_id;sensor_type;location;lat;lon;timestamp;P1;durP1;ratioP1;P2;durP2;ratioP2
73823;SDS011;62154;54.914;73.444;2024-03-22T00:00:09;39.40;;;18.73;;
73823;SDS011;62154;54.914;73.444;2024-03-22T00:02:41;23.95;;;11.68;;
73823;SDS011;62154;54.914;73.444;2024-03-22T00:05:08;35.40;;;13.25;;
73823;SDS011;62154;54.914;73.444;2024-03-22T00:07:36;41.55;;;17.05;;
73823;SDS011;62154;54.914;73.444;2024-03-22T00:10:08;55.33;;;21.88;;
73823;SDS011;62154;54.914;73.444;2024-03-22T00:12:35;60.20;;;23.15;;
73823;SDS011;62154;54.914;73.444;2024-03-22T00:15:03;43.95;;;16.58;;
73823;SDS011;62154;54.914;73.444;2024-03-22T00:17:31;53.33;;;20.42;;
73823;SDS011;62154;54.914;73.444;2024-03-22T00:20:02;53.33;;;20.65;;
73823;SDS011;62154;54.914;73.444;2024-03-22T00:22:30;46.72;;;20.42;;
73823;SDS011;62154;54.914;73.444;2024-03-22T00:24:57;46.72;;;18.83;;
73823;SDS011;62154;54.914;73.444;2024-03-22T00:27:25;37.78;;;16.55;;
73823;SDS011;62154;54.914;73.444;2024-03-22T00:29:52;27.80;;;11.75;;
73823;SDS011;62154;54.914;73.444;2024-03-22T00:32:19;30.27;;;11.93;;
73823;SDS011;62154;54.914;73.444;2024-03-22T00:34:47;28.13;;;12.25;;
73823;SDS011;62154;54.914;73.444;2024-03-22T00:37:15;26.10;;;12.57;;
73823;SDS011;62154;54.914;73.444;2024-03-22T00:39:42;33.47;;;13.88;;
73823;SDS011;62154;54.914;73.444;2024-03-22T00:42:11;33.47;;;15.90;;
73823;SDS011;62154;54.914;73.444;2024-03-22T00:44:38;35.65;;;16.42;;
73823;SDS011;62154;54.914;73.444;2024-03-22T00:47:06;72.60;;;23.77;;
73823;SDS011;62154;54.914;73.444;2024-03-22T00:49:33;57.15;;;22.08;;
73823;SDS011;62154;54.914;73.444;2024-03-22T00:52:01;57.88;;;19.80;;
73823;SDS011;62154;54.914;73.444;2024-03-22T00:54:29;37.03;;;14.88;;
73823;SDS011;62154;54.914;73.444;2024-03-22T00:57:01;38.70;;;14.76;;
73823;SDS011;62154;54.914;73.444;2024-03-22T00:59:29;35.08;;;13.52;;
73823;SDS011;62154;54.914;73.444;2024-03-22T01:01:56;32.78;;;14.40;;
73823;SDS011;62154;54.914;73.444;2024-03-22T01:04:24;33.13;;;16.55;;
73823;SDS011;62154;54.914;73.444;2024-03-22T01:06:51;36.55;;;16.02;;
73823;SDS011;62154;54.914;73.444;2024-03-22T01:09:19;38.67;;;16.02;;
73823;SDS011;62154;54.914;73.444;2024-03-22T01:11:46;35.45;;;16.13;;
73823;SDS011;62154;54.914;73.444;2024-03-22T01:14:14;33.88;;;15.95;;
73823;SDS011;62154;54.914;73.444;2024-03-22T01:16:42;37.42;;;18.08;;
73823;SDS011;62154;54.914;73.444;2024-03-22T01:19:09;47.67;;;19.73;;
73823;SDS011;62154;54.914;73.444;2024-03-22T01:21:37;51.35;;;22.63;;
73823;SDS011;62154;54.914;73.444;2024-03-22T01:24:04;58.03;;;24.00;;
73823;SDS011;62154;54.914;73.444;2024-03-22T01:26:32;57.70;;;24.83;;
73823;SDS011;62154;54.914;73.444;2024-03-22T01:28:59;57.50;;;23.38;;
73823;SDS011;62154;54.914;73.444;2024-03-22T01:31:26;72.35;;;30.92;;
73823;SDS011;62154;54.914;73.444;2024-03-22T01:33:54;90.53;;;38.08;;
73823;SDS011;62154;54.914;73.444;2024-03-22T01:36:21;96.85;;;40.90;;
73823;SDS011;62154;54.914;73.444;2024-03-22T01:38:49;86.43;;;38.85;;
73823;SDS011;62154;54.914;73.444;2024-03-22T01:41:16;95.90;;;39.67;;
73823;SDS011;62154;54.914;73.444;2024-03-22T01:43:44;103.32;;;40.92;;
73823;SDS011;62154;54.914;73.444;2024-03-22T01:46:12;92.05;;;37.42;;
73823;SDS011;62154;54.914;73.444;2024-03-22T01:48:39;81.32;;;36.97;;
73823;SDS011;62154;54.914;73.444;2024-03-22T01:51:10;85.18;;;36.90;;
73823;SDS011;62154;54.914;73.444;2024-03-22T01:53:38;93.53;;;38.90;;
73823;SDS011;62154;54.914;73.444;2024-03-22T01:56:06;138.88;;;56.00;;
73823;SDS011;62154;54.914;73.444;2024-03-22T01:58:34;112.45;;;44.70;;
73823;SDS011;62154;54.914;73.444;2024-03-22T02:01:02;93.43;;;37.75;;
73823;SDS011;62154;54.914;73.444;2024-03-22T02:03:30;90.25;;;35.28;;
73823;SDS011;62154;54.914;73.444;2024-03-22T02:05:57;90.13;;;34.60;;
73823;SDS011;62154;54.914;73.444;2024-03-22T02:08:24;239.30;;;82.15;;
73823;SDS011;62154;54.914;73.444;2024-03-22T02:10:52;129.52;;;46.10;;
73823;SDS011;62154;54.914;73.444;2024-03-22T02:13:20;99.22;;;35.40;;
73823;SDS011;62154;54.914;73.444;2024-03-22T02:15:47;74.60;;;32.50;;
73823;SDS011;62154;54.914;73.444;2024-03-22T02:18:35;204.65;;;77.53;;
73823;SDS011;62154;54.914;73.444;2024-03-22T02:21:03;105.97;;;40.85;;
73823;SDS011;62154;54.914;73.444;2024-03-22T02:23:34;150.45;;;52.70;;
73823;SDS011;62154;54.914;73.444;2024-03-22T02:26:02;132.90;;;50.88;;
73823;SDS011;62154;54.914;73.444;2024-03-22T02:28:32;65.60;;;29.83;;
73823;SDS011;62154;54.914;73.444;2024-03-22T02:31:00;71.22;;;27.83;;
73823;SDS011;62154;54.914;73.444;2024-03-22T02:33:29;77.53;;;30.17;;
73823;SDS011;62154;54.914;73.444;2024-03-22T02:35:56;109.85;;;39.20;;
73823;SDS011;62154;54.914;73.444;2024-03-22T02:38:24;87.70;;;36.13;;
73823;SDS011;62154;54.914;73.444;2024-03-22T02:40:52;103.88;;;42.20;;
73823;SDS011;62154;54.914;73.444;2024-03-22T02:43:19;237.90;;;81.22;;
73823;SDS011;62154;54.914;73.444;2024-03-22T02:45:50;104.50;;;39.67;;
73823;SDS011;62154;54.914;73.444;2024-03-22T02:48:17;201.30;;;71.03;;
73823;SDS011;62154;54.914;73.444;2024-03-22T02:50:45;211.23;;;77.63;;
73823;SDS011;62154;54.914;73.444;2024-03-22T02:53:12;142.15;;;56.33;;
73823;SDS011;62154;54.914;73.444;2024-03-22T02:55:40;171.80;;;68.28;;
73823;SDS011;62154;54.914;73.444;2024-03-22T02:58:09;142.18;;;55.50;;
73823;SDS011;62154;54.914;73.444;2024-03-22T03:00:37;137.23;;;53.88;;
73823;SDS011;62154;54.914;73.444;2024-03-22T03:03:05;197.48;;;69.32;;
73823;SDS011;62154;54.914;73.444;2024-03-22T03:05:33;209.75;;;70.82;;
73823;SDS011;62154;54.914;73.444;2024-03-22T03:08:01;115.18;;;43.25;;
73823;SDS011;62154;54.914;73.444;2024-03-22T03:10:36;108.70;;;40.57;;
73823;SDS011;62154;54.914;73.444;2024-03-22T03:13:03;114.03;;;41.80;;
73823;SDS011;62154;54.914;73.444;2024-03-22T03:15:31;101.72;;;36.53;;
73823;SDS011;62154;54.914;73.444;2024-03-22T03:17:58;122.57;;;46.25;;
73823;SDS011;62154;54.914;73.444;2024-03-22T03:20:26;138.10;;;48.90;;
73823;SDS011;62154;54.914;73.444;2024-03-22T03:22:54;127.45;;;46.63;;
73823;SDS011;62154;54.914;73.444;2024-03-22T03:25:22;114.13;;;44.40;;
73823;SDS011;62154;54.914;73.444;2024-03-22T03:27:49;110.63;;;44.35;;
73823;SDS011;62154;54.914;73.444;2024-03-22T03:30:17;106.70;;;40.53;;
73823;SDS011;62154;54.914;73.444;2024-03-22T03:32:44;103.70;;;40.20;;
73823;SDS011;62154;54.914;73.444;2024-03-22T03:35:12;92.15;;;37.38;;
73823;SDS011;62154;54.914;73.444;2024-03-22T03:37:39;96.95;;;36.25;;
73823;SDS011;62154;54.914;73.444;2024-03-22T03:40:07;95.10;;;39.40;;
73823;SDS011;62154;54.914;73.444;2024-03-22T03:42:35;94.28;;;36.65;;
73823;SDS011;62154;54.914;73.444;2024-03-22T03:45:02;95.13;;;35.95;;
73823;SDS011;62154;54.914;73.444;2024-03-22T03:47:30;116.35;;;46.97;;
73823;SDS011;62154;54.914;73.444;2024-03-22T03:49:58;103.38;;;39.28;;
73823;SDS011;62154;54.914;73.444;2024-03-22T03:52:25;122.25;;;46.33;;
73823;SDS011;62154;54.914;73.444;2024-03-22T03:54:52;119.25;;;47.42;;
73823;SDS011;62154;54.914;73.444;2024-03-22T03:57:20;117.38;;;48.20;;
73823;SDS011;62154;54.914;73.444;2024-03-22T03:59:47;121.25;;;45.42;;
73823;SDS011;62154;54.914;73.444;2024-03-22T04:02:15;122.30;;;47.60;;
73823;SDS011;62154;54.914;73.444;2024-03-22T04:04:42;120.85;;;47.13;;
73823;SDS011;62154;54.914;73.444;2024-03-22T04:07:10;108.55;;;45.08;;
73823;SDS011;62154;54.914;73.444;2024-03-22T04:09:37;129.05;;;48.42;;
73823;SDS011;62154;54.914;73.444;2024-03-22T04:12:05;122.28;;;47.25;;
73823;SDS011;62154;54.914;73.444;2024-03-22T04:14:33;103.20;;;40.40;;
73823;SDS011;62154;54.914;73.444;2024-03-22T04:17:00;101.75;;;40.25;;
73823;SDS011;62154;54.914;73.444;2024-03-22T04:19:27;96.95;;;39.97;;
73823;SDS011;62154;54.914;73.444;2024-03-22T04:21:55;90.97;;;38.45;;
73823;SDS011;62154;54.914;73.444;2024-03-22T04:24:23;98.05;;;41.10;;
73823;SDS011;62154;54.914;73.444;2024-03-22T04:26:50;94.90;;;37.80;;
73823;SDS011;62154;54.914;73.444;2024-03-22T04:29:18;90.90;;;37.27;;
73823;SDS011;62154;54.914;73.444;2024-03-22T04:31:48;86.78;;;35.20;;
73823;SDS011;62154;54.914;73.444;2024-03-22T04:34:15;88.00;;;35.30;;
73823;SDS011;62154;54.914;73.444;2024-03-22T04:36:43;84.40;;;32.67;;
73823;SDS011;62154;54.914;73.444;2024-03-22T04:39:19;81.73;;;32.93;;
73823;SDS011;62154;54.914;73.444;2024-03-22T04:41:47;83.68;;;32.15;;
73823;SDS011;62154;54.914;73.444;2024-03-22T04:44:14;66.82;;;27.08;;
73823;SDS011;62154;54.914;73.444;2024-03-22T04:46:42;73.38;;;29.92;;
73823;SDS011;62154;54.914;73.444;2024-03-22T04:49:09;66.68;;;24.95;;
73823;SDS011;62154;54.914;73.444;2024-03-22T04:51:37;56.20;;;22.60;;
73823;SDS011;62154;54.914;73.444;2024-03-22T04:54:04;52.25;;;22.63;;
73823;SDS011;62154;54.914;73.444;2024-03-22T04:56:31;60.58;;;22.60;;
73823;SDS011;62154;54.914;73.444;2024-03-22T04:58:59;51.42;;;22.27;;
73823;SDS011;62154;54.914;73.444;2024-03-22T05:01:27;52.58;;;22.15;;
73823;SDS011;62154;54.914;73.444;2024-03-22T05:03:54;58.70;;;23.40;;
73823;SDS011;62154;54.914;73.444;2024-03-22T05:06:22;59.40;;;23.30;;
73823;SDS011;62154;54.914;73.444;2024-03-22T05:08:49;61.70;;;25.92;;
73823;SDS011;62154;54.914;73.444;2024-03-22T05:11:17;57.28;;;23.35;;
73823;SDS011;62154;54.914;73.444;2024-03-22T05:13:45;56.42;;;22.98;;
73823;SDS011;62154;54.914;73.444;2024-03-22T05:16:13;47.67;;;20.95;;
73823;SDS011;62154;54.914;73.444;2024-03-22T05:18:40;53.13;;;20.38;;
73823;SDS011;62154;54.914;73.444;2024-03-22T05:21:08;58.33;;;22.17;;
73823;SDS011;62154;54.914;73.444;2024-03-22T05:23:35;45.13;;;19.38;;
73823;SDS011;62154;54.914;73.444;2024-03-22T05:26:03;46.33;;;19.05;;
73823;SDS011;62154;54.914;73.444;2024-03-22T05:28:31;44.63;;;18.02;;
73823;SDS011;62154;54.914;73.444;2024-03-22T05:30:58;46.00;;;16.77;;
73823;SDS011;62154;54.914;73.444;2024-03-22T05:33:26;47.72;;;17.00;;
73823;SDS011;62154;54.914;73.444;2024-03-22T05:35:54;51.90;;;18.17;;
73823;SDS011;62154;54.914;73.444;2024-03-22T05:38:21;36.95;;;15.77;;
73823;SDS011;62154;54.914;73.444;2024-03-22T05:40:49;35.40;;;15.85;;
73823;SDS011;62154;54.914;73.444;2024-03-22T05:43:16;37.10;;;16.17;;
73823;SDS011;62154;54.914;73.444;2024-03-22T05:45:43;37.97;;;14.48;;
73823;SDS011;62154;54.914;73.444;2024-03-22T05:48:11;50.85;;;15.35;;
73823;SDS011;62154;54.914;73.444;2024-03-22T05:50:39;44.70;;;15.77;;
73823;SDS011;62154;54.914;73.444;2024-03-22T05:53:08;36.20;;;14.13;;
73823;SDS011;62154;54.914;73.444;2024-03-22T05:55:35;35.08;;;13.40;;
73823;SDS011;62154;54.914;73.444;2024-03-22T05:58:03;34.78;;;12.95;;
73823;SDS011;62154;54.914;73.444;2024-03-22T06:00:43;36.70;;;11.68;;
73823;SDS011;62154;54.914;73.444;2024-03-22T06:03:11;41.95;;;14.95;;
73823;SDS011;62154;54.914;73.444;2024-03-22T06:05:38;15.55;;;7.00;;
73823;SDS011;62154;54.914;73.444;2024-03-22T06:08:06;16.67;;;6.30;;
73823;SDS011;62154;54.914;73.444;2024-03-22T06:10:34;19.70;;;6.70;;
73823;SDS011;62154;54.914;73.444;2024-03-22T06:13:02;16.42;;;7.10;;
73823;SDS011;62154;54.914;73.444;2024-03-22T06:15:30;24.88;;;6.72;;
73823;SDS011;62154;54.914;73.444;2024-03-22T06:17:57;19.00;;;7.15;;
73823;SDS011;62154;54.914;73.444;2024-03-22T06:20:37;14.75;;;6.20;;
73823;SDS011;62154;54.914;73.444;2024-03-22T06:23:04;26.60;;;7.43;;
73823;SDS011;62154;54.914;73.444;2024-03-22T06:25:32;23.58;;;8.82;;
73823;SDS011;62154;54.914;73.444;2024-03-22T06:27:59;22.60;;;9.02;;
73823;SDS011;62154;54.914;73.444;2024-03-22T06:30:27;16.20;;;7.07;;
73823;SDS011;62154;54.914;73.444;2024-03-22T06:32:55;15.70;;;6.47;;
73823;SDS011;62154;54.914;73.444;2024-03-22T06:35:22;10.40;;;5.50;;
73823;SDS011;62154;54.914;73.444;2024-03-22T06:37:50;11.23;;;4.70;;
73823;SDS011;62154;54.914;73.444;2024-03-22T06:40:22;25.02;;;9.07;;
73823;SDS011;62154;54.914;73.444;2024-03-22T06:42:50;18.10;;;5.28;;
73823;SDS011;62154;54.914;73.444;2024-03-22T06:45:17;13.25;;;5.85;;
73823;SDS011;62154;54.914;73.444;2024-03-22T06:47:45;14.40;;;6.88;;
73823;SDS011;62154;54.914;73.444;2024-03-22T06:50:13;9.43;;;4.57;;
73823;SDS011;62154;54.914;73.444;2024-03-22T06:52:41;20.85;;;8.45;;
73823;SDS011;62154;54.914;73.444;2024-03-22T06:55:13;15.57;;;7.20;;
73823;SDS011;62154;54.914;73.444;2024-03-22T06:57:41;11.23;;;4.40;;
73823;SDS011;62154;54.914;73.444;2024-03-22T07:00:08;11.18;;;4.15;;
73823;SDS011;62154;54.914;73.444;2024-03-22T07:02:36;13.23;;;5.57;;
73823;SDS011;62154;54.914;73.444;2024-03-22T07:05:04;10.45;;;4.93;;
73823;SDS011;62154;54.914;73.444;2024-03-22T07:07:33;14.07;;;4.65;;
73823;SDS011;62154;54.914;73.444;2024-03-22T07:10:01;10.27;;;4.88;;
73823;SDS011;62154;54.914;73.444;2024-03-22T07:12:30;11.32;;;4.45;;
73823;SDS011;62154;54.914;73.444;2024-03-22T07:14:57;12.75;;;5.00;;
73823;SDS011;62154;54.914;73.444;2024-03-22T07:17:26;12.93;;;4.68;;
73823;SDS011;62154;54.914;73.444;2024-03-22T07:19:54;17.13;;;6.95;;
73823;SDS011;62154;54.914;73.444;2024-03-22T07:22:22;25.60;;;10.05;;
73823;SDS011;62154;54.914;73.444;2024-03-22T07:24:50;32.67;;;12.98;;
73823;SDS011;62154;54.914;73.444;2024-03-22T07:27:18;30.35;;;11.52;;
73823;SDS011;62154;54.914;73.444;2024-03-22T07:29:45;32.22;;;12.70;;
73823;SDS011;62154;54.914;73.444;2024-03-22T07:32:13;38.85;;;15.13;;
73823;SDS011;62154;54.914;73.444;2024-03-22T07:34:40;28.98;;;12.02;;
73823;SDS011;62154;54.914;73.444;2024-03-22T07:37:08;10.75;;;4.20;;
73823;SDS011;62154;54.914;73.444;2024-03-22T07:39:35;16.92;;;6.72;;
73823;SDS011;62154;54.914;73.444;2024-03-22T07:42:03;10.32;;;4.93;;
73823;SDS011;62154;54.914;73.444;2024-03-22T07:44:30;6.45;;;3.08;;
73823;SDS011;62154;54.914;73.444;2024-03-22T07:46:58;7.88;;;3.80;;
73823;SDS011;62154;54.914;73.444;2024-03-22T07:49:25;6.05;;;3.05;;
73823;SDS011;62154;54.914;73.444;2024-03-22T07:51:53;8.05;;;3.33;;
73823;SDS011;62154;54.914;73.444;2024-03-22T07:54:20;7.80;;;3.80;;
73823;SDS011;62154;54.914;73.444;2024-03-22T07:56:48;11.15;;;5.43;;
73823;SDS011;62154;54.914;73.444;2024-03-22T07:59:15;8.77;;;4.10;;
73823;SDS011;62154;54.914;73.444;2024-03-22T08:01:43;11.23;;;6.15;;
73823;SDS011;62154;54.914;73.444;2024-03-22T08:04:10;8.88;;;4.18;;
73823;SDS011;62154;54.914;73.444;2024-03-22T08:06:37;14.45;;;5.57;;
73823;SDS011;62154;54.914;73.444;2024-03-22T08:09:05;11.52;;;3.83;;
73823;SDS011;62154;54.914;73.444;2024-03-22T08:11:34;11.77;;;4.75;;
73823;SDS011;62154;54.914;73.444;2024-03-22T08:14:01;14.45;;;7.68;;
73823;SDS011;62154;54.914;73.444;2024-03-22T08:16:30;22.25;;;9.55;;
73823;SDS011;62154;54.914;73.444;2024-03-22T08:18:57;15.98;;;7.00;;
73823;SDS011;62154;54.914;73.444;2024-03-22T08:21:25;25.40;;;9.37;;
73823;SDS011;62154;54.914;73.444;2024-03-22T08:23:53;56.13;;;19.40;;
73823;SDS011;62154;54.914;73.444;2024-03-22T08:26:20;87.47;;;33.60;;
73823;SDS011;62154;54.914;73.444;2024-03-22T08:28:47;86.13;;;32.28;;
73823;SDS011;62154;54.914;73.444;2024-03-22T08:31:15;136.27;;;48.47;;
73823;SDS011;62154;54.914;73.444;2024-03-22T08:33:43;56.80;;;19.88;;
73823;SDS011;62154;54.914;73.444;2024-03-22T08:36:11;109.97;;;37.40;;
73823;SDS011;62154;54.914;73.444;2024-03-22T08:38:38;23.92;;;9.20;;
73823;SDS011;62154;54.914;73.444;2024-03-22T08:41:06;11.55;;;5.53;;
73823;SDS011;62154;54.914;73.444;2024-03-22T08:43:34;10.07;;;4.60;;
73823;SDS011;62154;54.914;73.444;2024-03-22T08:46:01;13.27;;;5.68;;
73823;SDS011;62154;54.914;73.444;2024-03-22T08:48:30;10.95;;;5.28;;
73823;SDS011;62154;54.914;73.444;2024-03-22T08:50:59;11.65;;;5.35;;
73823;SDS011;62154;54.914;73.444;2024-03-22T08:53:26;8.00;;;4.28;;
73823;SDS011;62154;54.914;73.444;2024-03-22T08:55:53;8.77;;;3.90;;
73823;SDS011;62154;54.914;73.444;2024-03-22T08:58:21;12.13;;;5.15;;
73823;SDS011;62154;54.914;73.444;2024-03-22T09:00:48;12.18;;;6.45;;
73823;SDS011;62154;54.914;73.444;2024-03-22T09:03:16;26.75;;;13.68;;
73823;SDS011;62154;54.914;73.444;2024-03-22T09:05:44;23.17;;;12.68;;
73823;SDS011;62154;54.914;73.444;2024-03-22T09:08:12;33.90;;;14.43;;
73823;SDS011;62154;54.914;73.444;2024-03-22T09:10:40;27.30;;;15.38;;
73823;SDS011;62154;54.914;73.444;2024-03-22T09:13:08;24.63;;;14.77;;
73823;SDS011;62154;54.914;73.444;2024-03-22T09:15:39;22.77;;;10.68;;
73823;SDS011;62154;54.914;73.444;2024-03-22T09:18:07;10.10;;;4.53;;
73823;SDS011;62154;54.914;73.444;2024-03-22T09:20:34;10.38;;;4.43;;
73823;SDS011;62154;54.914;73.444;2024-03-22T09:23:02;12.80;;;4.72;;
73823;SDS011;62154;54.914;73.444;2024-03-22T09:25:30;32.97;;;12.88;;
73823;SDS011;62154;54.914;73.444;2024-03-22T09:27:58;18.63;;;9.40;;
73823;SDS011;62154;54.914;73.444;2024-03-22T09:30:26;11.05;;;5.85;;
73823;SDS011;62154;54.914;73.444;2024-03-22T09:32:53;7.93;;;4.55;;
73823;SDS011;62154;54.914;73.444;2024-03-22T09:35:21;9.38;;;5.60;;
73823;SDS011;62154;54.914;73.444;2024-03-22T09:37:48;13.55;;;6.13;;
73823;SDS011;62154;54.914;73.444;2024-03-22T09:40:16;10.80;;;5.03;;
73823;SDS011;62154;54.914;73.444;2024-03-22T09:42:59;17.40;;;8.55;;
73823;SDS011;62154;54.914;73.444;2024-03-22T09:45:35;19.95;;;10.25;;
73823;SDS011;62154;54.914;73.444;2024-03-22T09:48:04;16.05;;;8.25;;
73823;SDS011;62154;54.914;73.444;2024-03-22T09:50:41;12.20;;;4.65;;
73823;SDS011;62154;54.914;73.444;2024-03-22T09:53:11;8.15;;;4.05;;
73823;SDS011;62154;54.914;73.444;2024-03-22T09:55:52;20.17;;;9.52;;
73823;SDS011;62154;54.914;73.444;2024-03-22T09:58:27;15.05;;;5.57;;
73823;SDS011;62154;54.914;73.444;2024-03-22T10:00:55;16.98;;;8.07;;
73823;SDS011;62154;54.914;73.444;2024-03-22T10:03:29;9.95;;;4.90;;
73823;SDS011;62154;54.914;73.444;2024-03-22T10:05:59;15.23;;;7.47;;
73823;SDS011;62154;54.914;73.444;2024-03-22T10:08:34;17.23;;;7.88;;
73823;SDS011;62154;54.914;73.444;2024-03-22T10:11:02;57.58;;;33.55;;
73823;SDS011;62154;54.914;73.444;2024-03-22T10:13:30;14.52;;;7.35;;
73823;SDS011;62154;54.914;73.444;2024-03-22T10:15:58;34.70;;;15.10;;
73823;SDS011;62154;54.914;73.444;2024-03-22T10:18:26;30.55;;;13.45;;
73823;SDS011;62154;54.914;73.444;2024-03-22T10:21:03;20.38;;;10.50;;
73823;SDS011;62154;54.914;73.444;2024-03-22T10:23:33;17.45;;;9.35;;
73823;SDS011;62154;54.914;73.444;2024-03-22T10:26:00;13.20;;;6.30;;
73823;SDS011;62154;54.914;73.444;2024-03-22T10:28:28;32.60;;;13.63;;
73823;SDS011;62154;54.914;73.444;2024-03-22T10:31:07;11.45;;;6.07;;
73823;SDS011;62154;54.914;73.444;2024-03-22T10:33:34;12.10;;;5.18;;
73823;SDS011;62154;54.914;73.444;2024-03-22T10:36:02;12.60;;;5.35;;
73823;SDS011;62154;54.914;73.444;2024-03-22T10:38:31;18.80;;;6.53;;
73823;SDS011;62154;54.914;73.444;2024-03-22T10:41:02;7.20;;;4.28;;
73823;SDS011;62154;54.914;73.444;2024-03-22T10:43:31;13.43;;;4.50;;
73823;SDS011;62154;54.914;73.444;2024-03-22T10:46:02;12.50;;;4.82;;
73823;SDS011;62154;54.914;73.444;2024-03-22T10:48:32;8.82;;;4.10;;
73823;SDS011;62154;54.914;73.444;2024-03-22T10:51:01;5.72;;;2.80;;
73823;SDS011;62154;54.914;73.444;2024-03-22T10:53:30;9.23;;;3.95;;
73823;SDS011;62154;54.914;73.444;2024-03-22T10:55:59;15.43;;;4.25;;
73823;SDS011;62154;54.914;73.444;2024-03-22T10:58:29;8.57;;;4.65;;
73823;SDS011;62154;54.914;73.444;2024-03-22T11:00:56;11.23;;;4.57;;
73823;SDS011;62154;54.914;73.444;2024-03-22T11:03:24;10.48;;;4.28;;
73823;SDS011;62154;54.914;73.444;2024-03-22T11:06:07;10.80;;;4.70;;
73823;SDS011;62154;54.914;73.444;2024-03-22T11:08:51;9.55;;;4.10;;
73823;SDS011;62154;54.914;73.444;2024-03-22T11:11:18;15.02;;;5.75;;
73823;SDS011;62154;54.914;73.444;2024-03-22T11:13:47;11.85;;;5.35;;
73823;SDS011;62154;54.914;73.444;2024-03-22T11:16:17;12.25;;;6.20;;
73823;SDS011;62154;54.914;73.444;2024-03-22T11:18:45;17.27;;;6.70;;
73823;SDS011;62154;54.914;73.444;2024-03-22T11:21:12;9.10;;;4.55;;
73823;SDS011;62154;54.914;73.444;2024-03-22T11:23:40;10.38;;;4.65;;
73823;SDS011;62154;54.914;73.444;2024-03-22T11:26:07;13.55;;;7.03;;
73823;SDS011;62154;54.914;73.444;2024-03-22T11:28:37;12.23;;;5.13;;
73823;SDS011;62154;54.914;73.444;2024-03-22T11:31:04;11.02;;;4.95;;
73823;SDS011;62154;54.914;73.444;2024-03-22T11:33:32;11.25;;;5.22;;
73823;SDS011;62154;54.914;73.444;2024-03-22T11:36:01;16.17;;;6.97;;
73823;SDS011;62154;54.914;73.444;2024-03-22T11:38:38;17.98;;;8.13;;
73823;SDS011;62154;54.914;73.444;2024-03-22T11:41:06;13.38;;;4.75;;
73823;SDS011;62154;54.914;73.444;2024-03-22T11:43:34;19.60;;;9.40;;
73823;SDS011;62154;54.914;73.444;2024-03-22T11:46:01;10.02;;;5.93;;
73823;SDS011;62154;54.914;73.444;2024-03-22T11:48:31;9.13;;;4.35;;
73823;SDS011;62154;54.914;73.444;2024-03-22T11:50:59;8.48;;;4.38;;
73823;SDS011;62154;54.914;73.444;2024-03-22T11:53:28;15.50;;;7.20;;
73823;SDS011;62154;54.914;73.444;2024-03-22T11:55:58;16.58;;;6.93;;
73823;SDS011;62154;54.914;73.444;2024-03-22T11:58:28;14.82;;;6.10;;
73823;SDS011;62154;54.914;73.444;2024-03-22T12:00:57;11.27;;;5.18;;
73823;SDS011;62154;54.914;73.444;2024-03-22T12:03:25;28.33;;;10.17;;
73823;SDS011;62154;54.914;73.444;2024-03-22T12:05:55;31.52;;;11.27;;
73823;SDS011;62154;54.914;73.444;2024-03-22T12:08:40;19.13;;;6.97;;
73823;SDS011;62154;54.914;73.444;2024-03-22T12:11:12;13.50;;;6.05;;
73823;SDS011;62154;54.914;73.444;2024-03-22T12:13:44;8.82;;;3.88;;
73823;SDS011;62154;54.914;73.444;2024-03-22T12:16:32;17.50;;;7.50;;
73823;SDS011;62154;54.914;73.444;2024-03-22T12:18:59;18.05;;;5.93;;
73823;SDS011;62154;54.914;73.444;2024-03-22T12:21:27;10.60;;;5.07;;
73823;SDS011;62154;54.914;73.444;2024-03-22T12:24:09;16.25;;;6.88;;
73823;SDS011;62154;54.914;73.444;2024-03-22T12:26:37;16.02;;;7.18;;
73823;SDS011;62154;54.914;73.444;2024-03-22T12:29:04;11.13;;;5.35;;
73823;SDS011;62154;54.914;73.444;2024-03-22T12:31:37;15.48;;;7.22;;
73823;SDS011;62154;54.914;73.444;2024-03-22T12:34:05;16.90;;;6.68;;
73823;SDS011;62154;54.914;73.444;2024-03-22T12:36:33;30.73;;;12.07;;
73823;SDS011;62154;54.914;73.444;2024-03-22T12:39:00;13.10;;;5.05;;
73823;SDS011;62154;54.914;73.444;2024-03-22T12:41:28;12.52;;;5.95;;
73823;SDS011;62154;54.914;73.444;2024-03-22T12:43:57;16.15;;;7.10;;
73823;SDS011;62154;54.914;73.444;2024-03-22T12:46:44;14.18;;;5.47;;
73823;SDS011;62154;54.914;73.444;2024-03-22T12:49:23;18.35;;;6.40;;
73823;SDS011;62154;54.914;73.444;2024-03-22T12:51:51;36.00;;;17.63;;
73823;SDS011;62154;54.914;73.444;2024-03-22T12:54:19;35.35;;;16.70;;
73823;SDS011;62154;54.914;73.444;2024-03-22T12:56:47;32.40;;;14.88;;
73823;SDS011;62154;54.914;73.444;2024-03-22T12:59:17;22.73;;;13.00;;
73823;SDS011;62154;54.914;73.444;2024-03-22T13:02:01;21.45;;;9.23;;
73823;SDS011;62154;54.914;73.444;2024-03-22T13:04:29;21.42;;;9.85;;
73823;SDS011;62154;54.914;73.444;2024-03-22T13:06:56;16.48;;;9.30;;
73823;SDS011;62154;54.914;73.444;2024-03-22T13:09:23;15.35;;;7.85;;
73823;SDS011;62154;54.914;73.444;2024-03-22T13:11:51;64.55;;;32.97;;
73823;SDS011;62154;54.914;73.444;2024-03-22T13:14:19;62.60;;;27.02;;
73823;SDS011;62154;54.914;73.444;2024-03-22T13:16:48;85.78;;;37.45;;
73823;SDS011;62154;54.914;73.444;2024-03-22T13:19:16;108.03;;;45.65;;
73823;SDS011;62154;54.914;73.444;2024-03-22T13:21:45;140.00;;;46.53;;
73823;SDS011;62154;54.914;73.444;2024-03-22T13:24:15;80.70;;;32.30;;
73823;SDS011;62154;54.914;73.444;2024-03-22T13:26:42;83.20;;;36.30;;
73823;SDS011;62154;54.914;73.444;2024-03-22T13:29:10;66.35;;;33.38;;
73823;SDS011;62154;54.914;73.444;2024-03-22T13:31:40;69.28;;;25.30;;
73823;SDS011;62154;54.914;73.444;2024-03-22T13:34:08;34.92;;;17.85;;
73823;SDS011;62154;54.914;73.444;2024-03-22T13:36:35;50.47;;;18.30;;
73823;SDS011;62154;54.914;73.444;2024-03-22T13:39:16;42.70;;;16.92;;
73823;SDS011;62154;54.914;73.444;2024-03-22T13:42:01;38.63;;;15.52;;
73823;SDS011;62154;54.914;73.444;2024-03-22T13:44:31;41.97;;;16.17;;
73823;SDS011;62154;54.914;73.444;2024-03-22T13:47:02;106.82;;;34.13;;
73823;SDS011;62154;54.914;73.444;2024-03-22T13:49:31;77.15;;;22.65;;
73823;SDS011;62154;54.914;73.444;2024-03-22T13:51:59;82.97;;;34.08;;
73823;SDS011;62154;54.914;73.444;2024-03-22T13:54:32;90.79;;;33.51;;
73823;SDS011;62154;54.914;73.444;2024-03-22T13:57:00;128.57;;;47.65;;
73823;SDS011;62154;54.914;73.444;2024-03-22T13:59:29;109.75;;;53.05;;
73823;SDS011;62154;54.914;73.444;2024-03-22T14:01:57;134.52;;;66.30;;
73823;SDS011;62154;54.914;73.444;2024-03-22T14:04:25;67.15;;;31.77;;
73823;SDS011;62154;54.914;73.444;2024-03-22T14:06:56;45.78;;;19.60;;
73823;SDS011;62154;54.914;73.444;2024-03-22T14:09:23;33.85;;;17.33;;
73823;SDS011;62154;54.914;73.444;2024-03-22T14:11:53;34.42;;;15.27;;
73823;SDS011;62154;54.914;73.444;2024-03-22T14:14:21;42.50;;;18.77;;
73823;SDS011;62154;54.914;73.444;2024-03-22T14:16:49;33.38;;;14.52;;
73823;SDS011;62154;54.914;73.444;2024-03-22T14:19:16;38.35;;;15.77;;
73823;SDS011;62154;54.914;73.444;2024-03-22T14:21:46;41.88;;;18.60;;